Pagrindinis puslapis
METAR-TAF:

METAR-TAF

Oro uostai :

Tunisas, Tunisas

platuma: 36-50N, ilguma: 010-14E, Aukštis: 3 m

Dabartinis oras

Ataskaita buvo paskelbta 1 valandą ir 1 minutes, ne 04:00 UTC
Vėjas 5 kt iš Vakarų
Temperatūra 12°C
Drėgmė 76%
Slėgis 1027 hPa
Matomumas 10 km arba daugiau
Mažai debesys ne aukštis 2300 ft
Išsisklaidę debesys ne aukštis 4000 ft

METAR: DTTA 220400Z 26005KT 9999 FEW023 SCT040 12/08 Q1027

Laikas: 06:01 (05:01 UTC)

Prognozė

Ataskaita buvo paskelbta 6 valandos ir 1 minutes, ne 23:00 UTC
Prognozė galioja nuo 22 metu 00 UTC su 22 metu 24 UTC
Vėjas 8 kt iš Vakarų/Pietvakarių
Matomumas 10 km arba daugiau
Mažai debesys ne aukštis 2300 ft
Išsisklaidę debesys ne aukštis 4000 ft
Tapsmas
nuo 22 metu 06 UTC su 22 metu 08 UTC
Vėjas 12 kt iš Vakarų/Šiaurės Vakarų
Tapsmas
nuo 22 metu 12 UTC su 22 metu 14 UTC
Vėjas 10 kt iš Šiaurės
Tapsmas
nuo 22 metu 18 UTC su 22 metu 20 UTC
Vėjas 4 kt nuo kintamojo kryptimis

TAF: DTTA 212300Z 2200/2224 240008KT 9999 FEW023 SCT040 BECMG 2206/2208 30012KT BECMG 2212/2214 36010KT BECMG 2218/2220 VRB04KT

Orai ataskaitas ir orų prognozės (METAR, TAF).

turimą stotys yra geltonos ir raudonos taškus žemėlapyje.

Perkelti pele per norėdami pamatyti stoties vardą.

Tada spustelėkite, norėdami matyti oro stebėjimo ir prognozės.

Norėdami pakeisti žemėlapį: spustelėkite ant žalios mygtukų su juodo kryžiaus žemyn,; žalią mygtuką su brūkšneliu, jei norite nutolinti; arba žalių rodyklių gretimoms žemėlapius.


METAR-TAF: